createdAt,value
2023-03-04T00:00:29.817Z,57.65
2023-03-04T00:02:57.305Z,52.63
2023-03-04T00:05:24.776Z,54.55
2023-03-04T00:07:52.083Z,55.40
2023-03-04T00:10:19.747Z,55.15
2023-03-04T00:12:47.253Z,52.15
2023-03-04T00:15:14.941Z,58.72
2023-03-04T00:17:42.215Z,54.35
2023-03-04T00:20:10.039Z,53.72
2023-03-04T00:22:37.812Z,55.25
2023-03-04T00:25:05.794Z,56.08
2023-03-04T00:27:33.263Z,56.13
2023-03-04T00:30:00.496Z,58.00
2023-03-04T00:32:27.888Z,61.45
2023-03-04T00:34:55.188Z,55.38
2023-03-04T00:37:22.756Z,56.30
2023-03-04T00:39:50.865Z,57.40
2023-03-04T00:42:19.095Z,58.70
2023-03-04T00:44:51.603Z,60.13
2023-03-04T00:47:19.510Z,57.60
2023-03-04T00:49:47.221Z,63.78
2023-03-04T00:52:15.353Z,60.10
2023-03-04T00:54:42.674Z,57.67
2023-03-04T00:57:13.179Z,60.28
2023-03-04T00:59:41.091Z,57.50
2023-03-04T01:02:11.277Z,63.47
2023-03-04T01:04:39.130Z,57.90
2023-03-04T01:07:06.734Z,59.70
2023-03-04T01:09:34.603Z,65.07
2023-03-04T01:12:03.458Z,65.22
2023-03-04T01:14:33.453Z,63.70
2023-03-04T01:19:33.367Z,62.47
2023-03-04T01:22:00.805Z,63.78
2023-03-04T01:24:30.184Z,67.20
2023-03-04T01:26:57.874Z,63.90
2023-03-04T01:29:25.206Z,62.88
2023-03-04T01:31:52.456Z,65.25
2023-03-04T01:34:20.957Z,67.65
2023-03-04T01:36:48.287Z,63.97
2023-03-04T01:39:15.654Z,65.50
2023-03-04T01:41:43.301Z,64.20
2023-03-04T01:44:11.379Z,63.58
2023-03-04T01:46:42.617Z,63.50
2023-03-04T01:49:12.224Z,63.10
2023-03-04T01:51:39.571Z,66.10
2023-03-04T01:54:06.978Z,64.93
2023-03-04T01:56:38.932Z,60.33
2023-03-04T01:59:18.401Z,64.22
2023-03-04T02:01:51.233Z,57.50
2023-03-04T02:04:24.213Z,60.13
2023-03-04T02:06:52.206Z,62.63
2023-03-04T02:09:20.376Z,58.20
2023-03-04T02:11:50.196Z,60.90
2023-03-04T02:14:19.514Z,57.95
2023-03-04T02:16:48.534Z,63.38
2023-03-04T02:19:43.786Z,58.55
2023-03-04T02:22:11.119Z,57.95
2023-03-04T02:24:43.388Z,57.63
2023-03-04T02:27:11.023Z,55.58
2023-03-04T02:29:39.139Z,55.83
2023-03-04T02:32:06.750Z,57.28
2023-03-04T02:34:35.485Z,55.50
2023-03-04T02:37:03.999Z,54.42
2023-03-04T02:39:45.443Z,54.63
2023-03-04T02:42:13.239Z,55.00
2023-03-04T02:44:43.600Z,55.30
2023-03-04T02:47:13.356Z,54.08
2023-03-04T02:49:41.540Z,58.95
2023-03-04T02:52:20.176Z,53.72
2023-03-04T02:54:47.481Z,56.15
2023-03-04T02:57:15.852Z,55.63
2023-03-04T02:59:47.040Z,51.63
2023-03-04T03:02:18.878Z,62.72
2023-03-04T03:04:46.546Z,56.17
2023-03-04T03:07:16.493Z,56.70
2023-03-04T03:09:44.082Z,55.28
2023-03-04T03:12:11.485Z,56.70
2023-03-04T03:14:38.920Z,58.20
2023-03-04T03:17:08.565Z,60.97
2023-03-04T03:19:35.975Z,59.78
2023-03-04T03:22:06.549Z,57.25
2023-03-04T03:24:34.124Z,63.50
2023-03-04T03:27:01.884Z,59.58
2023-03-04T03:29:29.410Z,59.20
2023-03-04T03:31:57.192Z,61.13
2023-03-04T03:34:24.689Z,57.28
2023-03-04T03:36:52.324Z,60.67
2023-03-04T03:39:20.085Z,57.22
2023-03-04T03:41:47.555Z,64.80
2023-03-04T03:44:14.949Z,64.70
2023-03-04T03:46:42.395Z,58.90
2023-03-04T03:49:09.753Z,60.95
2023-03-04T03:51:37.037Z,63.22
2023-03-04T03:54:04.483Z,61.42
2023-03-04T03:56:32.886Z,66.13
2023-03-04T03:59:00.317Z,60.17
2023-03-04T04:01:27.617Z,56.72
2023-03-04T04:03:54.963Z,62.60
2023-03-04T04:06:22.493Z,60.40
2023-03-04T04:08:50.044Z,55.67
2023-03-04T04:11:17.536Z,57.72
2023-03-04T04:13:44.851Z,53.72
2023-03-04T04:16:12.457Z,52.17
2023-03-04T04:18:39.912Z,54.53
2023-03-04T04:21:07.753Z,58.47
2023-03-04T04:23:35.509Z,58.50
2023-03-04T04:26:02.899Z,52.38
2023-03-04T04:28:30.298Z,53.85
2023-03-04T04:30:57.865Z,53.72
2023-03-04T04:33:25.488Z,55.03
2023-03-04T04:35:53.086Z,52.58
2023-03-04T04:38:20.556Z,52.67
2023-03-04T04:40:47.921Z,54.45
2023-03-04T04:43:15.170Z,48.72
2023-03-04T04:45:42.528Z,47.47
2023-03-04T04:48:09.895Z,52.20
2023-03-04T04:50:37.415Z,57.00
2023-03-04T04:53:04.731Z,54.88
2023-03-04T04:55:32.236Z,52.13
2023-03-04T04:57:59.497Z,53.88
2023-03-04T05:00:26.843Z,48.63
2023-03-04T05:02:54.471Z,52.03
2023-03-04T05:05:21.997Z,52.45
2023-03-04T05:07:49.252Z,50.40
2023-03-04T05:10:16.676Z,51.65
2023-03-04T05:12:45.089Z,51.70
2023-03-04T05:15:12.528Z,52.33
2023-03-04T05:17:39.942Z,50.08
2023-03-04T05:20:08.837Z,48.17
2023-03-04T05:22:36.209Z,49.58
2023-03-04T05:25:03.898Z,55.53
2023-03-04T05:27:31.251Z,52.92
2023-03-04T05:30:01.537Z,53.58
2023-03-04T05:32:29.040Z,50.00
2023-03-04T05:34:56.523Z,49.67
2023-03-04T05:37:24.147Z,50.47
2023-03-04T05:39:51.434Z,50.95
2023-03-04T05:42:18.665Z,48.35
2023-03-04T05:44:47.207Z,51.47
2023-03-04T05:47:14.640Z,55.45
2023-03-04T05:49:42.692Z,48.08
2023-03-04T05:52:10.333Z,53.13
2023-03-04T05:54:37.866Z,48.67
2023-03-04T05:57:05.420Z,48.70
2023-03-04T05:59:32.764Z,54.45
2023-03-04T06:02:00.036Z,51.15
2023-03-04T06:04:27.462Z,48.67
2023-03-04T06:06:54.814Z,53.67
2023-03-04T06:09:22.163Z,56.72
2023-03-04T06:11:49.395Z,51.08
2023-03-04T06:14:16.676Z,50.90
2023-03-04T06:16:44.229Z,56.08
2023-03-04T06:19:11.592Z,50.22
2023-03-04T06:21:39.313Z,53.88
2023-03-04T06:24:06.908Z,49.80
2023-03-04T06:26:34.226Z,53.97
2023-03-04T06:29:02.350Z,48.20
2023-03-04T06:31:29.915Z,52.40
2023-03-04T06:33:57.219Z,49.13
2023-03-04T06:36:24.449Z,48.28
2023-03-04T06:38:51.859Z,47.95
2023-03-04T06:41:19.428Z,48.38
2023-03-04T06:43:46.857Z,46.67
2023-03-04T06:46:14.501Z,50.50
2023-03-04T06:48:42.043Z,47.53
2023-03-04T06:51:10.780Z,45.70
2023-03-04T06:53:39.209Z,46.47
2023-03-04T06:56:07.512Z,41.28
2023-03-04T06:58:34.950Z,45.05
2023-03-04T07:01:17.636Z,61.05
2023-03-04T07:03:45.979Z,127.63
2023-03-04T07:06:15.143Z,44.25
2023-03-04T07:08:43.309Z,43.57
2023-03-04T07:11:10.996Z,43.83
2023-03-04T07:13:38.543Z,43.35
2023-03-04T07:16:15.227Z,43.05
2023-03-04T07:18:42.709Z,42.65
2023-03-04T07:21:10.110Z,47.90
2023-03-04T07:23:37.411Z,41.75
2023-03-04T07:26:05.468Z,43.75
2023-03-04T07:28:33.360Z,42.05
2023-03-04T07:31:20.909Z,47.40
2023-03-04T07:33:48.397Z,45.95
2023-03-04T07:36:16.169Z,41.83
2023-03-04T07:38:45.641Z,48.60
2023-03-04T07:41:13.958Z,42.00
2023-03-04T07:43:41.481Z,39.00
2023-03-04T07:46:09.450Z,40.78
2023-03-04T07:48:38.849Z,40.83
2023-03-04T07:51:15.349Z,46.22
2023-03-04T07:53:45.553Z,52.75
2023-03-04T07:56:16.292Z,45.13
2023-03-04T07:58:45.456Z,51.40
2023-03-04T08:01:16.280Z,47.03
2023-03-04T08:03:44.246Z,44.28
2023-03-04T08:06:14.685Z,44.65
2023-03-04T08:08:43.176Z,47.03
2023-03-04T08:11:16.502Z,47.80
2023-03-04T08:13:44.029Z,48.50
2023-03-04T08:16:15.972Z,49.80
2023-03-04T08:18:48.300Z,41.05
2023-03-04T08:21:19.420Z,38.42
2023-03-04T08:23:47.196Z,43.17
2023-03-04T08:26:16.620Z,50.55
2023-03-04T08:28:45.817Z,45.83
2023-03-04T08:31:14.765Z,44.00
2023-03-04T08:33:43.706Z,50.97
2023-03-04T08:36:11.197Z,46.90
2023-03-04T08:38:38.883Z,46.90
2023-03-04T08:41:06.427Z,49.63
2023-03-04T08:43:34.788Z,48.08
2023-03-04T08:46:02.573Z,48.00
2023-03-04T08:48:30.079Z,47.42
2023-03-04T08:50:57.681Z,46.60
2023-03-04T08:53:25.433Z,46.30
2023-03-04T08:55:53.341Z,50.40
2023-03-04T08:58:21.077Z,46.65
2023-03-04T09:00:49.485Z,42.42
2023-03-04T09:03:19.479Z,51.35
2023-03-04T09:08:18.579Z,41.28
2023-03-04T09:10:46.798Z,40.17
2023-03-04T09:13:17.273Z,45.53
2023-03-04T09:15:50.114Z,39.92
2023-03-04T09:18:18.668Z,37.28
2023-03-04T09:20:46.449Z,35.08
2023-03-04T09:23:14.113Z,38.33
2023-03-04T09:25:42.576Z,37.78
2023-03-04T09:28:10.831Z,39.03
2023-03-04T09:30:38.499Z,40.45
2023-03-04T09:33:06.219Z,39.67
2023-03-04T09:35:33.655Z,40.10
2023-03-04T09:38:01.145Z,41.33
2023-03-04T09:40:41.977Z,39.92
2023-03-04T09:43:19.253Z,36.97
2023-03-04T09:45:50.352Z,38.28
2023-03-04T09:48:21.757Z,37.70
2023-03-04T09:51:09.274Z,35.75
2023-03-04T09:53:55.340Z,40.33
2023-03-04T09:56:22.890Z,43.13
2023-03-04T09:59:13.506Z,48.53
2023-03-04T10:01:53.677Z,43.70
2023-03-04T10:04:42.247Z,47.78
2023-03-04T10:07:18.367Z,39.80
2023-03-04T10:10:02.418Z,44.00
2023-03-04T10:12:31.908Z,42.00
2023-03-04T10:15:22.221Z,47.05
2023-03-04T10:17:54.068Z,44.70
2023-03-04T10:20:25.510Z,42.00
2023-03-04T10:23:12.980Z,47.28
2023-03-04T10:25:45.664Z,42.05
2023-03-04T10:28:18.442Z,47.95
2023-03-04T10:31:08.005Z,50.30
2023-03-04T10:33:39.838Z,48.80
2023-03-04T10:36:22.435Z,45.55
2023-03-04T10:38:57.715Z,46.33
2023-03-04T10:41:27.711Z,41.85
2023-03-04T10:44:03.850Z,42.55
2023-03-04T10:46:31.965Z,41.42
2023-03-04T10:48:59.324Z,40.28
2023-03-04T10:51:29.308Z,41.45
2023-03-04T10:54:30.235Z,42.88
2023-03-04T10:57:03.832Z,44.67
2023-03-04T10:59:32.218Z,43.45
2023-03-04T11:02:02.116Z,43.33
2023-03-04T11:07:00.516Z,44.88
2023-03-04T11:09:30.556Z,42.67
2023-03-04T11:12:03.314Z,38.67
2023-03-04T11:14:40.530Z,53.33
2023-03-04T11:17:21.670Z,37.95
2023-03-04T11:19:54.855Z,36.97
2023-03-04T11:22:23.972Z,37.40
2023-03-04T11:24:57.856Z,36.78
2023-03-04T11:27:34.781Z,39.17
2023-03-04T11:30:23.492Z,36.15
2023-03-04T11:32:52.185Z,42.47
2023-03-04T11:35:48.971Z,39.80
2023-03-04T11:38:33.632Z,42.38
2023-03-04T11:41:09.508Z,34.92
2023-03-04T11:43:38.821Z,35.50
2023-03-04T11:46:17.685Z,41.38
2023-03-04T11:48:59.817Z,39.27
2023-03-04T11:51:45.707Z,39.90
2023-03-04T11:54:36.099Z,43.65
2023-03-04T11:57:13.081Z,35.13
2023-03-04T11:59:59.131Z,43.40
2023-03-04T12:02:34.546Z,36.85
2023-03-04T12:05:21.760Z,36.88
2023-03-04T12:08:36.219Z,39.97
2023-03-04T12:11:33.317Z,37.47
2023-03-04T12:14:09.685Z,46.30
2023-03-04T12:16:52.791Z,46.88
2023-03-04T12:19:52.937Z,44.05
2023-03-04T12:24:53.696Z,37.83
2023-03-04T12:27:39.313Z,38.90
2023-03-04T12:30:35.213Z,45.78
2023-03-04T12:33:34.267Z,36.90
2023-03-04T12:36:19.485Z,38.10
2023-03-04T12:38:59.417Z,36.25
2023-03-04T12:41:32.748Z,38.53
2023-03-04T12:44:19.553Z,36.55
2023-03-04T12:47:12.940Z,36.67
2023-03-04T12:49:54.363Z,33.65
2023-03-04T12:52:33.970Z,36.30
2023-03-04T12:55:04.399Z,35.47
2023-03-04T12:57:33.331Z,37.08
2023-03-04T13:00:13.030Z,29.13
2023-03-04T13:03:05.249Z,30.67
2023-03-04T13:06:02.255Z,32.35
2023-03-04T13:09:06.786Z,37.25
2023-03-04T13:11:40.657Z,31.10
2023-03-04T13:14:15.082Z,37.33
2023-03-04T13:16:50.058Z,44.85
2023-03-04T13:19:42.569Z,29.52
2023-03-04T13:22:40.658Z,27.98
2023-03-04T13:25:40.926Z,27.20
2023-03-04T13:28:11.545Z,32.40
2023-03-04T13:30:38.997Z,26.42
2023-03-04T13:33:13.537Z,26.60
2023-03-04T13:35:50.031Z,27.83
2023-03-04T13:38:29.384Z,28.25
2023-03-04T13:41:15.379Z,38.77
2023-03-04T13:43:43.658Z,26.52
2023-03-04T13:46:20.284Z,41.92
2023-03-04T13:48:50.699Z,31.98
2023-03-04T13:51:28.955Z,24.63
2023-03-04T13:54:00.127Z,24.90
2023-03-04T13:56:34.951Z,25.05
2023-03-04T13:59:24.731Z,26.48
2023-03-04T14:02:08.872Z,24.10
2023-03-04T14:04:41.517Z,23.95
2023-03-04T14:07:25.764Z,29.27
2023-03-04T14:10:00.387Z,27.58
2023-03-04T14:12:30.512Z,23.63
2023-03-04T14:17:32.662Z,23.52
2023-03-04T14:20:01.428Z,30.38
2023-03-04T14:22:41.808Z,27.15
2023-03-04T14:25:21.808Z,22.85
2023-03-04T14:30:40.700Z,25.10
2023-03-04T14:33:14.295Z,25.05
2023-03-04T14:35:47.083Z,24.85
2023-03-04T14:38:31.387Z,20.50
2023-03-04T14:41:06.221Z,22.70
2023-03-04T14:43:40.314Z,21.58
2023-03-04T14:46:12.489Z,23.27
2023-03-04T14:48:40.706Z,19.02
2023-03-04T14:51:50.673Z,19.25
2023-03-04T14:56:56.340Z,19.35
2023-03-04T14:59:32.130Z,35.85
2023-03-04T15:02:31.517Z,25.70
2023-03-04T15:05:01.150Z,17.23
2023-03-04T15:07:34.423Z,17.95
2023-03-04T15:10:04.609Z,19.73
2023-03-04T15:15:02.736Z,14.93
2023-03-04T15:17:40.957Z,21.42
2023-03-04T15:20:08.878Z,21.45
2023-03-04T15:22:37.549Z,19.65
2023-03-04T15:25:05.244Z,23.98
2023-03-04T15:27:32.877Z,20.98
2023-03-04T15:30:01.653Z,17.98
2023-03-04T15:32:29.938Z,16.08
2023-03-04T15:34:57.685Z,21.10
2023-03-04T15:37:28.212Z,19.33
2023-03-04T15:39:56.856Z,15.93
2023-03-04T15:42:24.979Z,20.75
2023-03-04T15:44:52.314Z,19.33
2023-03-04T15:47:19.873Z,12.00
2023-03-04T15:49:47.691Z,16.23
2023-03-04T15:52:17.795Z,14.30
2023-03-04T15:54:45.927Z,12.60
2023-03-04T15:57:24.149Z,18.23
2023-03-04T15:59:52.001Z,16.98
2023-03-04T16:02:21.746Z,19.42
2023-03-04T16:04:49.249Z,22.60
2023-03-04T16:07:23.239Z,14.13
2023-03-04T16:10:02.396Z,14.95
2023-03-04T16:12:29.991Z,14.50
2023-03-04T16:14:57.599Z,18.40
2023-03-04T16:17:28.152Z,16.55
2023-03-04T16:19:55.670Z,12.50
2023-03-04T16:22:25.957Z,27.27
2023-03-04T16:27:22.313Z,21.83
2023-03-04T16:29:49.679Z,13.98
2023-03-04T16:32:17.111Z,11.85
2023-03-04T16:34:44.430Z,10.18
2023-03-04T16:37:19.576Z,12.07
2023-03-04T16:39:49.236Z,16.77
2023-03-04T16:42:19.098Z,12.50
2023-03-04T16:44:46.753Z,10.48
2023-03-04T16:47:14.161Z,11.32
2023-03-04T16:49:41.588Z,14.85
2023-03-04T16:52:18.633Z,8.40
2023-03-04T16:54:46.518Z,7.18
2023-03-04T16:57:16.552Z,11.27
2023-03-04T16:59:45.953Z,15.50
2023-03-04T17:02:15.400Z,9.35
2023-03-04T17:04:43.751Z,12.23
2023-03-04T17:07:12.341Z,10.95
2023-03-04T17:09:39.808Z,7.65
2023-03-04T17:12:09.240Z,8.88
2023-03-04T17:14:39.784Z,9.20
2023-03-04T17:17:07.499Z,10.98
2023-03-04T17:19:35.004Z,6.72
2023-03-04T17:22:02.576Z,10.82
2023-03-04T17:24:30.454Z,10.60
2023-03-04T17:26:57.991Z,11.38
2023-03-04T17:29:25.862Z,7.45
2023-03-04T17:31:53.215Z,11.02
2023-03-04T17:34:20.692Z,9.38
2023-03-04T17:36:48.247Z,11.07
2023-03-04T17:39:16.107Z,9.88
2023-03-04T17:41:43.462Z,10.98
2023-03-04T17:44:11.656Z,8.55
2023-03-04T17:46:39.357Z,12.50
2023-03-04T17:49:07.047Z,13.90
2023-03-04T17:51:36.640Z,11.35
2023-03-04T17:54:05.757Z,9.73
2023-03-04T17:56:34.061Z,12.25
2023-03-04T17:59:04.760Z,16.02
2023-03-04T18:01:32.098Z,12.43
2023-03-04T18:03:59.797Z,11.38
2023-03-04T18:06:27.219Z,10.02
2023-03-04T18:08:55.412Z,11.70
2023-03-04T18:11:24.549Z,10.52
2023-03-04T18:13:54.290Z,12.25
2023-03-04T18:16:27.341Z,11.35
2023-03-04T18:18:57.882Z,11.27
2023-03-04T18:21:26.944Z,9.80
2023-03-04T18:23:54.578Z,10.27
2023-03-04T18:26:25.451Z,11.82
2023-03-04T18:28:53.942Z,10.43
2023-03-04T18:31:23.528Z,33.25
2023-03-04T18:33:51.513Z,27.33
2023-03-04T18:36:19.050Z,11.65
2023-03-04T18:38:46.685Z,9.60
2023-03-04T18:41:14.883Z,18.60
2023-03-04T18:43:42.789Z,16.77
2023-03-04T18:46:17.604Z,18.48
2023-03-04T18:48:52.725Z,13.18
2023-03-04T18:51:20.494Z,13.63
2023-03-04T18:53:47.928Z,14.23
2023-03-04T18:56:18.971Z,14.02
2023-03-04T18:58:47.774Z,12.52
2023-03-04T19:01:16.895Z,12.73
2023-03-04T19:03:45.008Z,15.23
2023-03-04T19:06:13.109Z,16.75
2023-03-04T19:08:40.516Z,11.02
2023-03-04T19:11:16.794Z,14.88
2023-03-04T19:13:44.550Z,13.05
2023-03-04T19:16:11.867Z,13.20
2023-03-04T19:18:39.528Z,15.30
2023-03-04T19:21:07.132Z,22.05
2023-03-04T19:23:34.358Z,13.90
2023-03-04T19:26:01.771Z,16.17
2023-03-04T19:28:29.268Z,15.00
2023-03-04T19:30:59.289Z,18.92
2023-03-04T19:35:54.080Z,12.20
2023-03-04T19:38:22.364Z,12.98
2023-03-04T19:40:49.747Z,20.33
2023-03-04T19:43:18.642Z,13.98
2023-03-04T19:45:55.765Z,19.42
2023-03-04T19:48:25.066Z,14.43
2023-03-04T19:50:52.457Z,13.18
2023-03-04T19:53:20.390Z,16.65
2023-03-04T19:55:50.635Z,15.45
2023-03-04T19:58:19.007Z,17.58
2023-03-04T20:00:46.880Z,15.98
2023-03-04T20:03:14.372Z,18.67
2023-03-04T20:05:41.754Z,15.95
2023-03-04T20:08:09.125Z,19.27
2023-03-04T20:10:37.436Z,16.02
2023-03-04T20:13:10.777Z,14.55
2023-03-04T20:15:42.967Z,15.02
2023-03-04T20:18:10.674Z,17.33
2023-03-04T20:20:39.121Z,14.38
2023-03-04T20:23:06.889Z,18.33
2023-03-04T20:25:34.264Z,21.23
2023-03-04T20:28:02.154Z,19.23
2023-03-04T20:30:29.497Z,19.90
2023-03-04T20:33:02.276Z,16.70
2023-03-04T20:35:33.568Z,15.93
2023-03-04T20:38:03.947Z,18.58
2023-03-04T20:40:31.425Z,16.40
2023-03-04T20:42:59.028Z,17.38
2023-03-04T20:45:26.419Z,19.98
2023-03-04T20:47:53.606Z,22.75
2023-03-04T20:50:21.001Z,23.38
2023-03-04T20:52:48.648Z,16.42
2023-03-04T20:55:16.290Z,17.45
2023-03-04T20:57:43.612Z,19.35
2023-03-04T21:00:12.290Z,17.33
2023-03-04T21:02:44.765Z,16.10
2023-03-04T21:05:12.425Z,18.45
2023-03-04T21:07:39.859Z,17.48
2023-03-04T21:10:07.610Z,14.90
2023-03-04T21:12:35.073Z,17.48
2023-03-04T21:15:02.401Z,16.88
2023-03-04T21:17:29.709Z,18.02
2023-03-04T21:19:57.214Z,20.30
2023-03-04T21:22:24.558Z,17.52
2023-03-04T21:24:52.053Z,18.38
2023-03-04T21:27:19.394Z,17.00
2023-03-04T21:29:47.032Z,17.50
2023-03-04T21:32:24.572Z,16.38
2023-03-04T21:34:53.269Z,21.63
2023-03-04T21:37:21.616Z,15.70
2023-03-04T21:39:49.167Z,17.23
2023-03-04T21:42:16.507Z,21.10
2023-03-04T21:44:51.899Z,19.23
2023-03-04T21:47:20.499Z,16.08
2023-03-04T21:49:48.200Z,23.95
2023-03-04T21:52:16.102Z,16.33
2023-03-04T21:54:43.699Z,20.45
2023-03-04T21:57:11.095Z,25.15
2023-03-04T21:59:38.924Z,16.80
2023-03-04T22:02:24.932Z,21.70
2023-03-04T22:04:53.775Z,18.50
2023-03-04T22:07:21.466Z,18.25
2023-03-04T22:09:49.077Z,17.98
2023-03-04T22:12:18.434Z,20.20
2023-03-04T22:14:46.922Z,17.70
2023-03-04T22:17:14.281Z,15.48
2023-03-04T22:19:41.694Z,19.67
2023-03-04T22:22:09.220Z,25.63
2023-03-04T22:24:36.518Z,17.75
2023-03-04T22:27:03.861Z,15.93
2023-03-04T22:29:31.237Z,14.63
2023-03-04T22:31:58.799Z,20.85
2023-03-04T22:34:26.477Z,19.15
2023-03-04T22:36:53.894Z,14.27
2023-03-04T22:39:23.103Z,20.35
2023-03-04T22:41:50.786Z,17.63
2023-03-04T22:44:18.215Z,15.32
2023-03-04T22:46:45.577Z,20.05
2023-03-04T22:49:13.635Z,23.13
2023-03-04T22:51:42.527Z,14.07
2023-03-04T22:54:17.455Z,19.15
2023-03-04T22:56:45.337Z,17.05
2023-03-04T22:59:13.177Z,19.33
2023-03-04T23:01:40.736Z,14.23
2023-03-04T23:04:08.110Z,18.08
2023-03-04T23:06:35.901Z,14.35
2023-03-04T23:09:04.042Z,20.95
2023-03-04T23:11:35.170Z,18.20
2023-03-04T23:14:06.509Z,16.52
2023-03-04T23:16:42.387Z,19.67
2023-03-04T23:19:14.546Z,17.90
2023-03-04T23:21:42.159Z,18.58
2023-03-04T23:24:11.892Z,19.02
2023-03-04T23:26:40.626Z,18.77
2023-03-04T23:29:09.803Z,22.58
2023-03-04T23:31:37.572Z,20.83
2023-03-04T23:34:05.347Z,25.02
2023-03-04T23:36:34.470Z,29.85
2023-03-04T23:39:02.056Z,24.53
2023-03-04T23:41:31.275Z,41.70
2023-03-04T23:43:59.473Z,24.50
2023-03-04T23:46:28.003Z,28.00
2023-03-04T23:48:55.916Z,27.40
2023-03-04T23:51:26.494Z,32.30
2023-03-04T23:53:54.157Z,38.00
2023-03-04T23:56:27.784Z,30.92
2023-03-04T23:58:55.817Z,27.08
